Time;durP1;ratioP1;P1;durP2;ratioP2;P2;SDS_P1;SDS_P2;PMS_P1;PMS_P2;Temp;Humidity;BMP_temperature;BMP_pressure;BME280_temperature;BME280_humidity;BME280_pressure;Samples;Min_cycle;Max_cycle;Signal;HPM_P1;HPM_P2
2023/12/06 00:02:20;;;;;;;39.80;24.42;;;1.20;99.90;;;;;;5027892;28;20384;-64
2023/12/06 00:04:47;;;;;;;36.92;21.65;;;1.20;99.90;;;;;;5035495;28;20366;-63
2023/12/06 00:07:13;;;;;;;34.40;22.38;;;1.20;99.90;;;;;;5035236;28;20508;-63
2023/12/06 00:09:39;;;;;;;37.90;23.55;;;1.30;99.90;;;;;;5034610;28;20466;-64
2023/12/06 00:12:06;;;;;;;36.35;21.88;;;1.10;99.90;;;;;;5034811;28;20056;-63
2023/12/06 00:14:32;;;;;;;35.97;22.08;;;1.10;99.90;;;;;;5034888;28;20053;-62
2023/12/06 00:16:59;;;;;;;36.67;23.02;;;1.30;99.90;;;;;;5035155;28;20071;-63
2023/12/06 00:19:25;;;;;;;37.67;23.67;;;1.20;99.90;;;;;;5034594;28;20064;-65
2023/12/06 00:21:51;;;;;;;37.65;21.42;;;1.30;99.90;;;;;;5034596;28;20048;-63
2023/12/06 00:24:18;;;;;;;35.15;21.13;;;1.20;99.90;;;;;;5034975;28;20067;-64
2023/12/06 00:26:44;;;;;;;39.78;23.90;;;1.20;99.90;;;;;;5035271;28;20067;-64
2023/12/06 00:29:10;;;;;;;34.55;22.17;;;1.10;99.90;;;;;;5051076;28;20044;-63
2023/12/06 00:31:36;;;;;;;37.83;22.35;;;1.00;99.90;;;;;;5034934;28;20045;-63
2023/12/06 00:34:03;;;;;;;39.58;22.70;;;1.20;99.90;;;;;;5051177;28;20089;-62
2023/12/06 00:36:29;;;;;;;37.30;21.92;;;1.30;99.90;;;;;;5034706;28;20048;-63
2023/12/06 00:38:55;;;;;;;39.20;23.20;;;1.00;99.90;;;;;;5034276;28;20496;-63
2023/12/06 00:41:24;;;;;;;38.88;24.02;;;1.10;99.90;;;;;;5033882;28;20067;-65
2023/12/06 00:43:52;;;;;;;39.47;21.88;;;1.10;99.90;;;;;;5034587;28;20041;-64
2023/12/06 00:46:18;;;;;;;37.63;21.95;;;1.20;99.90;;;;;;5034742;28;20041;-63
2023/12/06 00:48:44;;;;;;;38.28;23.30;;;1.10;99.90;;;;;;5034050;28;20071;-63
2023/12/06 00:51:11;;;;;;;42.50;23.25;;;1.30;99.90;;;;;;5033941;28;20045;-63
2023/12/06 00:53:37;;;;;;;37.53;21.88;;;1.30;99.90;;;;;;5034737;28;20063;-64
2023/12/06 00:56:11;;;;;;;40.15;22.77;;;1.00;99.90;;;;;;5034076;28;20072;-63
2023/12/06 00:58:37;;;;;;;37.10;23.50;;;1.20;99.90;;;;;;5034090;28;20045;-65
2023/12/06 01:01:03;;;;;;;38.85;22.42;;;1.00;99.90;;;;;;5050387;28;20135;-65
2023/12/06 01:03:30;;;;;;;39.83;22.02;;;1.00;99.90;;;;;;5034228;28;20049;-62
2023/12/06 01:05:56;;;;;;;39.40;24.17;;;1.00;99.90;;;;;;5033808;28;20049;-64
2023/12/06 01:08:24;;;;;;;43.05;26.17;;;1.10;99.90;;;;;;5033806;28;20045;-64
2023/12/06 01:10:51;;;;;;;39.85;25.27;;;1.10;99.90;;;;;;5033977;28;20376;-63
2023/12/06 01:13:19;;;;;;;39.03;24.00;;;0.90;99.90;;;;;;5033813;28;20053;-64
2023/12/06 01:15:45;;;;;;;37.47;20.92;;;1.10;99.90;;;;;;5050495;28;20052;-64
2023/12/06 01:18:12;;;;;;;36.92;21.80;;;1.00;99.90;;;;;;5034068;28;20565;-64
2023/12/06 01:20:39;;;;;;;38.63;22.52;;;1.00;99.90;;;;;;5033607;28;20055;-64
2023/12/06 01:23:05;;;;;;;42.40;24.63;;;1.20;99.90;;;;;;5033541;28;20079;-64
2023/12/06 01:25:35;;;;;;;37.25;22.83;;;1.20;99.90;;;;;;5033600;28;20281;-63
2023/12/06 01:28:01;;;;;;;37.60;21.80;;;1.20;99.90;;;;;;5033870;28;20047;-64
2023/12/06 01:30:27;;;;;;;42.88;22.27;;;1.10;99.90;;;;;;5033278;28;20045;-63
2023/12/06 01:32:54;;;;;;;45.70;25.80;;;1.00;99.90;;;;;;5033889;28;20055;-63
2023/12/06 01:35:20;;;;;;;39.80;22.25;;;1.20;99.90;;;;;;5050187;28;20060;-63
2023/12/06 01:37:46;;;;;;;40.78;23.25;;;1.10;99.90;;;;;;5033912;28;20477;-64
2023/12/06 01:40:13;;;;;;;37.65;22.50;;;1.10;99.90;;;;;;5049751;28;20148;-64
2023/12/06 01:42:39;;;;;;;44.33;25.35;;;1.00;99.90;;;;;;5033305;28;20056;-64
2023/12/06 01:45:06;;;;;;;36.53;21.83;;;1.20;99.90;;;;;;5033539;28;20049;-64
2023/12/06 01:47:33;;;;;;;40.55;23.60;;;1.00;99.90;;;;;;5033685;28;20381;-63
2023/12/06 01:50:01;;;;;;;40.95;24.33;;;1.00;99.90;;;;;;5049225;28;20063;-64
2023/12/06 01:52:28;;;;;;;37.20;22.05;;;1.30;99.90;;;;;;5032252;28;20071;-64
2023/12/06 01:54:58;;;;;;;38.10;23.20;;;1.20;99.90;;;;;;5033558;28;20084;-64
2023/12/06 01:57:26;;;;;;;38.28;22.25;;;1.10;99.90;;;;;;5033204;28;20052;-64
2023/12/06 01:59:54;;;;;;;39.67;22.98;;;1.20;99.90;;;;;;5032799;28;20059;-63
2023/12/06 02:02:21;;;;;;;38.70;22.60;;;1.10;99.90;;;;;;5031823;28;20048;-64
2023/12/06 02:04:48;;;;;;;39.75;24.45;;;1.20;99.90;;;;;;5032847;28;20044;-65
2023/12/06 02:07:16;;;;;;;34.83;22.98;;;1.10;99.90;;;;;;5032752;28;20128;-64
2023/12/06 02:09:44;;;;;;;37.75;22.75;;;1.10;99.90;;;;;;5049162;28;20049;-63
2023/12/06 02:12:10;;;;;;;34.60;21.42;;;1.30;99.90;;;;;;5034189;28;20359;-64
2023/12/06 02:14:37;;;;;;;40.45;22.50;;;1.20;99.90;;;;;;5031854;28;20392;-64
2023/12/06 02:17:04;;;;;;;34.78;21.02;;;1.30;99.90;;;;;;5031881;28;20052;-63
2023/12/06 02:19:31;;;;;;;34.97;21.15;;;1.10;99.90;;;;;;5056608;28;20060;-64
2023/12/06 02:21:58;;;;;;;32.67;20.83;;;1.30;99.90;;;;;;5048245;28;20049;-64
2023/12/06 02:24:28;;;;;;;35.25;21.55;;;1.10;99.90;;;;;;5032039;28;20041;-64
2023/12/06 02:26:55;;;;;;;31.80;22.85;;;1.40;99.90;;;;;;5031627;28;20033;-65
2023/12/06 02:29:23;;;;;;;33.60;21.00;;;1.20;99.90;;;;;;5032136;28;20045;-64
2023/12/06 02:31:49;;;;;;;35.20;20.42;;;1.10;99.90;;;;;;5048084;28;20068;-65
2023/12/06 02:34:19;;;;;;;35.78;20.98;;;1.00;99.90;;;;;;5032239;28;20057;-64
2023/12/06 02:36:50;;;;;;;31.95;21.30;;;1.20;99.90;;;;;;5065941;28;20068;-65
2023/12/06 02:39:17;;;;;;;27.92;21.30;;;1.00;99.90;;;;;;5032248;28;20510;-64
2023/12/06 02:41:44;;;;;;;33.95;20.25;;;1.00;99.90;;;;;;5065614;28;20472;-65
2023/12/06 02:44:10;;;;;;;34.42;21.35;;;1.10;99.90;;;;;;5032315;28;20049;-65
2023/12/06 02:46:37;;;;;;;32.33;21.23;;;1.20;99.90;;;;;;5065646;28;20063;-65
2023/12/06 02:49:03;;;;;;;30.25;19.42;;;1.20;99.90;;;;;;5048129;28;20051;-64
2023/12/06 02:51:30;;;;;;;30.25;18.02;;;1.10;99.90;;;;;;5048492;28;20040;-65
2023/12/06 02:53:56;;;;;;;30.75;20.00;;;1.20;99.90;;;;;;5032513;28;20056;-64
2023/12/06 02:56:23;;;;;;;32.60;20.17;;;1.40;99.90;;;;;;5065899;28;20100;-64
2023/12/06 02:58:49;;;;;;;33.20;21.92;;;1.40;99.90;;;;;;5031881;28;20373;-65
2023/12/06 03:01:16;;;;;;;33.97;18.92;;;1.20;99.90;;;;;;5065222;28;20052;-65
2023/12/06 03:03:42;;;;;;;30.90;19.83;;;1.20;99.90;;;;;;5033824;28;20436;-65
2023/12/06 03:06:08;;;;;;;29.63;18.40;;;1.40;99.90;;;;;;5069449;28;20077;-65
2023/12/06 03:08:35;;;;;;;29.13;18.50;;;1.30;99.90;;;;;;5036226;28;20049;-65
2023/12/06 03:11:01;;;;;;;29.10;18.20;;;1.50;99.90;;;;;;5069757;28;20052;-65
2023/12/06 03:13:27;;;;;;;30.10;19.00;;;1.30;99.90;;;;;;5036237;28;20059;-65
2023/12/06 03:15:53;;;;;;;30.63;19.05;;;1.60;99.90;;;;;;5036236;28;20063;-64
2023/12/06 03:18:20;;;;;;;31.17;20.25;;;1.50;99.90;;;;;;5035977;28;20049;-65
2023/12/06 03:20:46;;;;;;;28.92;18.38;;;1.50;99.90;;;;;;5019746;28;20269;-64
2023/12/06 03:23:13;;;;;;;31.63;19.20;;;1.40;99.90;;;;;;5052305;28;20480;-65
2023/12/06 03:25:39;;;;;;;28.00;18.60;;;1.60;99.90;;;;;;5036177;28;20048;-65
2023/12/06 03:28:06;;;;;;;24.30;18.20;;;1.50;99.90;;;;;;5035984;28;20056;-64
2023/12/06 03:30:32;;;;;;;26.30;17.05;;;1.40;99.90;;;;;;5036112;28;20429;-64
2023/12/06 03:32:58;;;;;;;29.50;19.88;;;1.70;99.90;;;;;;5035566;28;20049;-65
2023/12/06 03:35:24;;;;;;;31.42;19.23;;;1.70;99.90;;;;;;5036009;28;20049;-65
2023/12/06 03:37:51;;;;;;;28.23;18.15;;;1.50;99.90;;;;;;5052516;28;20044;-65
2023/12/06 03:40:17;;;;;;;30.30;18.67;;;1.70;99.90;;;;;;5052180;28;20053;-65
2023/12/06 03:42:44;;;;;;;25.67;17.50;;;1.60;99.90;;;;;;5035683;28;20057;-65
2023/12/06 03:45:12;;;;;;;25.48;17.42;;;1.60;99.90;;;;;;5052087;28;20068;-65
2023/12/06 03:47:39;;;;;;;28.77;18.92;;;1.50;99.90;;;;;;5035849;28;20044;-64
2023/12/06 03:50:06;;;;;;;22.50;15.85;;;1.60;99.90;;;;;;5034977;28;20060;-64
2023/12/06 03:52:33;;;;;;;24.65;19.00;;;1.60;99.90;;;;;;5034984;28;20784;-65
2023/12/06 03:54:59;;;;;;;25.02;16.45;;;1.70;99.90;;;;;;5035742;28;20136;-64
2023/12/06 03:57:26;;;;;;;26.73;17.95;;;1.60;99.90;;;;;;5052337;28;20070;-64
2023/12/06 03:59:52;;;;;;;23.48;15.95;;;1.80;99.90;;;;;;5035236;28;20349;-65
2023/12/06 04:02:19;;;;;;;24.10;16.95;;;1.80;99.90;;;;;;5035189;28;20067;-64
2023/12/06 04:04:45;;;;;;;25.58;15.60;;;1.70;99.90;;;;;;5034956;28;20056;-64
2023/12/06 04:07:11;;;;;;;24.05;16.75;;;1.60;99.90;;;;;;5035007;28;20533;-65
2023/12/06 04:09:38;;;;;;;23.25;15.85;;;1.60;99.90;;;;;;5018554;28;20061;-65
2023/12/06 04:12:06;;;;;;;26.40;16.85;;;1.90;99.90;;;;;;5035064;28;20049;-65
2023/12/06 04:14:32;;;;;;;24.20;15.95;;;1.60;99.90;;;;;;5034745;28;20060;-64
2023/12/06 04:16:58;;;;;;;26.95;18.05;;;1.60;99.90;;;;;;5034998;28;20067;-64
2023/12/06 04:19:24;;;;;;;23.88;17.15;;;1.90;99.90;;;;;;5034744;28;20059;-65
2023/12/06 04:21:51;;;;;;;23.52;15.15;;;1.60;99.90;;;;;;5034613;28;20484;-64
2023/12/06 04:24:17;;;;;;;24.10;17.85;;;1.70;99.90;;;;;;5034990;28;20375;-64
2023/12/06 04:26:43;;;;;;;22.58;15.80;;;1.90;99.90;;;;;;5034884;28;20045;-64
2023/12/06 04:29:09;;;;;;;24.48;18.98;;;1.70;99.90;;;;;;5034687;28;20056;-64
2023/12/06 04:31:36;;;;;;;22.05;15.43;;;1.70;99.90;;;;;;5034534;28;20430;-64
2023/12/06 04:34:03;;;;;;;23.95;17.58;;;1.90;99.90;;;;;;5034773;28;20377;-65
2023/12/06 04:36:29;;;;;;;24.33;16.55;;;1.70;99.90;;;;;;5051196;28;20465;-64
2023/12/06 04:38:56;;;;;;;23.80;16.60;;;1.70;99.90;;;;;;5051100;28;20480;-65
2023/12/06 04:41:23;;;;;;;23.25;16.83;;;1.80;99.90;;;;;;5034537;28;20061;-65
2023/12/06 04:43:49;;;;;;;24.70;17.27;;;1.70;99.90;;;;;;5051482;28;20364;-65
2023/12/06 04:46:15;;;;;;;20.77;14.70;;;1.80;99.90;;;;;;5034785;28;20051;-64
2023/12/06 04:48:42;;;;;;;23.48;15.82;;;1.90;99.90;;;;;;5050429;28;20063;-64
2023/12/06 04:51:09;;;;;;;19.73;14.80;;;2.10;99.90;;;;;;5034207;28;20049;-64
2023/12/06 04:53:35;;;;;;;24.67;14.75;;;1.80;99.90;;;;;;5034469;28;20071;-65
2023/12/06 04:56:02;;;;;;;21.92;15.20;;;1.90;99.90;;;;;;5067520;28;20056;-64
2023/12/06 04:58:29;;;;;;;20.77;15.70;;;2.10;99.90;;;;;;5017685;28;20048;-64
2023/12/06 05:00:55;;;;;;;22.33;16.75;;;2.10;99.90;;;;;;5067754;28;20381;-65
2023/12/06 05:03:22;;;;;;;20.48;15.48;;;1.80;99.90;;;;;;5067392;28;20087;-65
2023/12/06 05:05:48;;;;;;;25.65;16.80;;;2.10;99.90;;;;;;5034456;28;20372;-65
2023/12/06 05:08:14;;;;;;;25.23;16.73;;;2.10;99.90;;;;;;5067042;28;20040;-65
2023/12/06 05:10:41;;;;;;;20.05;14.60;;;2.00;99.90;;;;;;5034264;28;20586;-64
2023/12/06 05:13:07;;;;;;;20.52;15.25;;;2.10;99.90;;;;;;5067142;28;20274;-64
2023/12/06 05:15:33;;;;;;;21.33;16.70;;;2.10;99.90;;;;;;5033928;28;20055;-64
2023/12/06 05:18:01;;;;;;;19.85;15.60;;;2.20;99.90;;;;;;5066737;28;20049;-65
2023/12/06 05:20:28;;;;;;;21.98;16.92;;;2.00;99.90;;;;;;5050890;28;20057;-64
2023/12/06 05:22:54;;;;;;;22.00;15.73;;;2.00;99.90;;;;;;5066842;28;20048;-64
2023/12/06 05:25:20;;;;;;;20.98;14.95;;;2.10;99.90;;;;;;5067041;28;20041;-65
2023/12/06 05:27:46;;;;;;;24.33;15.50;;;2.10;99.90;;;;;;5033617;28;20045;-65
2023/12/06 05:30:13;;;;;;;19.67;14.65;;;2.20;99.90;;;;;;5066552;28;20048;-65
2023/12/06 05:32:40;;;;;;;23.27;15.85;;;2.30;99.90;;;;;;5033672;28;20098;-65
2023/12/06 05:35:07;;;;;;;20.58;16.42;;;2.30;99.90;;;;;;5066952;28;20049;-64
2023/12/06 05:37:33;;;;;;;21.85;16.05;;;2.20;99.90;;;;;;5066532;28;20057;-64
2023/12/06 05:39:59;;;;;;;19.95;14.45;;;2.10;99.90;;;;;;5033685;28;20045;-65
2023/12/06 05:42:26;;;;;;;22.90;16.20;;;2.30;99.90;;;;;;5033262;28;20492;-65
2023/12/06 05:44:52;;;;;;;19.25;14.15;;;2.30;99.90;;;;;;5033393;28;20049;-65
2023/12/06 05:47:19;;;;;;;18.05;13.98;;;2.40;99.90;;;;;;5066343;28;20086;-65
2023/12/06 05:49:45;;;;;;;19.70;14.45;;;2.30;99.90;;;;;;5045896;28;20056;-64
2023/12/06 05:52:11;;;;;;;20.23;14.18;;;2.20;99.90;;;;;;5029071;28;20141;-65
2023/12/06 05:54:38;;;;;;;18.48;13.70;;;2.30;99.90;;;;;;5030154;28;20485;-64
2023/12/06 05:57:06;;;;;;;20.20;14.30;;;2.20;99.90;;;;;;5029460;28;20060;-65
2023/12/06 05:59:32;;;;;;;23.85;15.23;;;2.50;99.90;;;;;;5060833;28;20057;-65
2023/12/06 06:01:59;;;;;;;18.48;13.95;;;2.30;99.90;;;;;;5036999;28;20053;-65
2023/12/06 06:04:26;;;;;;;18.17;14.32;;;2.40;99.90;;;;;;5038904;28;20041;-65
2023/12/06 06:06:52;;;;;;;19.83;14.15;;;2.50;99.90;;;;;;5039293;28;20037;-64
2023/12/06 06:09:20;;;;;;;19.15;14.65;;;2.40;99.90;;;;;;5032866;28;20049;-64
2023/12/06 06:11:47;;;;;;;15.65;12.93;;;2.60;99.90;;;;;;5028659;28;20049;-64
2023/12/06 06:14:14;;;;;;;20.15;13.88;;;2.30;99.90;;;;;;5029085;28;20064;-65
2023/12/06 06:16:40;;;;;;;20.15;15.02;;;2.40;99.90;;;;;;5028930;28;20247;-65
2023/12/06 06:19:06;;;;;;;21.42;14.48;;;2.40;99.90;;;;;;5012139;28;20064;-64
2023/12/06 06:21:33;;;;;;;24.05;15.27;;;2.60;99.90;;;;;;5028638;28;20076;-65
2023/12/06 06:23:59;;;;;;;22.60;15.45;;;2.70;99.90;;;;;;5028913;28;20041;-65
2023/12/06 06:26:26;;;;;;;23.63;16.10;;;2.70;99.90;;;;;;5028491;28;20073;-65
2023/12/06 06:28:52;;;;;;;23.17;15.05;;;2.50;99.90;;;;;;5011966;28;20045;-65
2023/12/06 06:31:19;;;;;;;24.92;15.98;;;2.50;99.90;;;;;;5039675;28;20041;-64
2023/12/06 06:33:45;;;;;;;21.10;14.48;;;2.40;99.90;;;;;;5033277;28;20128;-65
2023/12/06 06:36:11;;;;;;;22.08;15.23;;;2.70;99.90;;;;;;5032363;28;20056;-67
2023/12/06 06:38:38;;;;;;;19.73;14.32;;;2.50;99.90;;;;;;5012273;28;20347;-65
2023/12/06 06:41:04;;;;;;;20.80;15.93;;;2.50;99.90;;;;;;5029429;28;20053;-64
2023/12/06 06:43:31;;;;;;;17.85;13.93;;;2.70;99.90;;;;;;5029261;28;20151;-66
2023/12/06 06:45:57;;;;;;;19.33;14.35;;;2.80;99.90;;;;;;5012874;28;20052;-66
2023/12/06 06:48:24;;;;;;;17.85;15.30;;;2.50;99.90;;;;;;5028783;28;20370;-66
2023/12/06 06:50:51;;;;;;;18.63;14.00;;;2.70;99.90;;;;;;5029015;28;20064;-64
2023/12/06 06:53:17;;;;;;;19.13;13.00;;;2.60;99.90;;;;;;5029179;28;20049;-65
2023/12/06 06:55:44;;;;;;;18.83;13.20;;;2.80;99.90;;;;;;5045280;28;20053;-65
2023/12/06 06:58:11;;;;;;;18.45;14.50;;;2.60;99.90;;;;;;5011583;28;20049;-65
2023/12/06 07:00:37;;;;;;;20.70;15.07;;;2.60;99.90;;;;;;5029353;28;20455;-65
2023/12/06 07:03:03;;;;;;;18.88;13.40;;;2.80;99.90;;;;;;5028155;28;20059;-65
2023/12/06 07:05:30;;;;;;;17.23;14.15;;;2.80;99.90;;;;;;5028167;28;20056;-65
2023/12/06 07:07:56;;;;;;;19.02;13.68;;;2.70;99.90;;;;;;5027214;28;20041;-65
2023/12/06 07:10:23;;;;;;;17.27;13.07;;;2.70;99.90;;;;;;5028074;28;20450;-65
2023/12/06 07:12:50;;;;;;;21.02;14.15;;;2.60;99.90;;;;;;5037778;28;20053;-65
2023/12/06 07:15:16;;;;;;;16.65;13.93;;;2.80;99.90;;;;;;5027980;28;20057;-65
2023/12/06 07:17:44;;;;;;;20.27;13.93;;;2.70;99.90;;;;;;5012349;28;20049;-64
2023/12/06 07:20:12;;;;;;;17.38;13.10;;;2.70;99.90;;;;;;5006546;28;20053;-65
2023/12/06 07:22:39;;;;;;;17.80;13.45;;;2.90;99.90;;;;;;5012498;28;20057;-64
2023/12/06 07:25:06;;;;;;;18.98;13.02;;;2.90;99.90;;;;;;5030413;28;20049;-65
2023/12/06 07:27:32;;;;;;;16.95;12.73;;;2.60;99.90;;;;;;5030763;28;20053;-65
2023/12/06 07:29:58;;;;;;;17.50;13.32;;;2.90;99.90;;;;;;5030705;28;20096;-64
2023/12/06 07:32:25;;;;;;;17.27;12.85;;;2.90;99.90;;;;;;5031737;28;20041;-64
2023/12/06 07:34:51;;;;;;;19.92;13.18;;;2.90;99.90;;;;;;5047077;28;20061;-64
2023/12/06 07:37:17;;;;;;;18.85;14.52;;;2.80;99.90;;;;;;5030221;28;20474;-65
2023/12/06 07:39:44;;;;;;;16.35;12.68;;;2.90;99.90;;;;;;5030532;28;20060;-64
2023/12/06 07:42:10;;;;;;;17.88;12.85;;;2.70;99.90;;;;;;5030193;28;20096;-64
2023/12/06 07:44:36;;;;;;;15.90;12.55;;;2.70;99.90;;;;;;5030316;28;20069;-64
2023/12/06 07:47:02;;;;;;;15.57;12.85;;;2.70;99.90;;;;;;5030618;28;20449;-65
2023/12/06 07:49:29;;;;;;;16.92;11.95;;;2.90;99.90;;;;;;5047393;28;20053;-64
2023/12/06 07:51:55;;;;;;;17.75;13.65;;;2.70;99.90;;;;;;5034398;28;20068;-64
2023/12/06 07:54:23;;;;;;;17.80;13.43;;;2.70;99.90;;;;;;5034158;28;20060;-64
2023/12/06 07:56:49;;;;;;;16.65;14.00;;;3.00;99.90;;;;;;5051316;28;20067;-65
2023/12/06 07:59:15;;;;;;;16.40;12.73;;;3.00;99.90;;;;;;5033695;28;20064;-65
2023/12/06 08:01:43;;;;;;;17.73;13.55;;;2.90;99.90;;;;;;5033730;28;20060;-65
2023/12/06 08:04:10;;;;;;;16.95;13.18;;;2.90;99.90;;;;;;5033923;28;20135;-64
2023/12/06 08:06:36;;;;;;;20.35;13.90;;;2.80;99.90;;;;;;5050491;28;20064;-64
2023/12/06 08:09:10;;;;;;;19.30;13.63;;;3.00;99.90;;;;;;5033520;28;20386;-65
2023/12/06 08:11:37;;;;;;;17.75;13.43;;;3.10;99.90;;;;;;5033393;28;20045;-64
2023/12/06 08:14:03;;;;;;;19.98;13.18;;;3.10;99.90;;;;;;5033617;28;20052;-64
2023/12/06 08:16:30;;;;;;;16.42;12.95;;;3.00;99.90;;;;;;5033167;28;20056;-64
2023/12/06 08:18:56;;;;;;;18.25;13.68;;;2.90;99.90;;;;;;5033188;28;20045;-64
2023/12/06 08:21:24;;;;;;;17.42;15.15;;;2.90;99.90;;;;;;5033488;28;20369;-65
2023/12/06 08:23:50;;;;;;;20.40;13.95;;;2.90;99.90;;;;;;5032594;28;20686;-64
2023/12/06 08:26:17;;;;;;;19.27;14.07;;;2.90;99.90;;;;;;5033043;28;20417;-65
2023/12/06 08:28:43;;;;;;;17.52;12.75;;;2.90;99.90;;;;;;5021770;28;20045;-65
2023/12/06 08:31:10;;;;;;;19.00;13.55;;;3.10;99.90;;;;;;5033113;28;20049;-65
2023/12/06 08:33:36;;;;;;;20.15;14.32;;;3.10;99.90;;;;;;5016900;28;20042;-64
2023/12/06 08:36:03;;;;;;;19.45;12.50;;;3.00;99.90;;;;;;5049644;28;20212;-65
2023/12/06 08:38:30;;;;;;;17.27;13.30;;;3.10;99.90;;;;;;5032748;28;20053;-65
2023/12/06 08:40:56;;;;;;;18.13;12.85;;;3.20;99.90;;;;;;5032946;28;20045;-65
2023/12/06 08:43:23;;;;;;;17.30;13.13;;;3.00;99.90;;;;;;5014957;28;20049;-65
2023/12/06 08:45:49;;;;;;;17.52;12.85;;;3.20;99.90;;;;;;5032463;28;20072;-65
2023/12/06 08:48:15;;;;;;;16.50;12.90;;;3.00;99.90;;;;;;5031370;28;20057;-65
2023/12/06 08:50:42;;;;;;;17.25;12.18;;;3.20;99.90;;;;;;5034946;28;20056;-66
2023/12/06 08:53:08;;;;;;;18.48;13.18;;;3.20;99.90;;;;;;5041992;28;20441;-65
2023/12/06 08:55:35;;;;;;;18.30;13.00;;;3.00;99.90;;;;;;5036791;28;20082;-65
2023/12/06 08:58:01;;;;;;;17.52;12.57;;;3.10;99.90;;;;;;5032122;28;20045;-65
2023/12/06 09:00:27;;;;;;;16.45;12.65;;;3.10;99.90;;;;;;5032749;28;20045;-65
2023/12/06 09:02:54;;;;;;;17.73;12.82;;;3.30;99.90;;;;;;5031880;28;20057;-65
2023/12/06 09:05:20;;;;;;;15.73;13.32;;;3.30;99.90;;;;;;5032649;28;20382;-65
2023/12/06 09:07:47;;;;;;;17.98;13.13;;;3.10;99.90;;;;;;5032861;28;20469;-64
2023/12/06 09:10:13;;;;;;;17.05;14.88;;;3.10;99.90;;;;;;5032211;28;20080;-66
2023/12/06 09:12:39;;;;;;;18.08;13.38;;;3.10;99.90;;;;;;5032876;28;20466;-66
2023/12/06 09:15:06;;;;;;;18.98;12.23;;;3.40;99.90;;;;;;5049073;28;20072;-66
2023/12/06 09:17:33;;;;;;;17.48;12.18;;;3.20;99.90;;;;;;5032573;28;20080;-65
2023/12/06 09:20:00;;;;;;;17.02;12.32;;;3.30;99.90;;;;;;5048652;28;20064;-67
2023/12/06 09:22:26;;;;;;;19.08;13.95;;;3.20;99.90;;;;;;5031478;28;20056;-66
2023/12/06 09:24:52;;;;;;;20.38;13.35;;;3.30;99.90;;;;;;5031891;28;20042;-65
2023/12/06 09:27:18;;;;;;;16.35;13.10;;;3.20;99.90;;;;;;5031681;28;20064;-65
2023/12/06 09:29:45;;;;;;;17.63;12.10;;;3.40;99.90;;;;;;5031929;28;20049;-65
2023/12/06 09:32:12;;;;;;;18.58;12.80;;;3.40;99.90;;;;;;5031825;28;20045;-66
2023/12/06 09:34:39;;;;;;;19.05;13.52;;;3.20;99.90;;;;;;5031443;28;20048;-64
2023/12/06 09:37:07;;;;;;;18.98;13.50;;;3.40;99.90;;;;;;5014949;28;20064;-65
2023/12/06 09:39:33;;;;;;;21.02;13.80;;;3.40;99.90;;;;;;5031778;28;20737;-65
2023/12/06 09:42:02;;;;;;;21.15;13.10;;;3.30;99.90;;;;;;5031401;28;20056;-64
2023/12/06 09:44:28;;;;;;;17.08;14.02;;;3.20;99.90;;;;;;5015097;28;20045;-65
2023/12/06 09:46:57;;;;;;;23.17;14.63;;;3.20;99.90;;;;;;5032102;28;20042;-65
2023/12/06 09:49:23;;;;;;;19.05;14.40;;;3.40;99.90;;;;;;5031298;28;20096;-65
2023/12/06 09:51:50;;;;;;;20.02;13.50;;;3.50;99.90;;;;;;5031286;28;20057;-65
2023/12/06 09:54:16;;;;;;;18.77;13.68;;;3.40;99.90;;;;;;5031843;28;20053;-63
2023/12/06 09:56:42;;;;;;;19.00;14.15;;;3.40;99.90;;;;;;5014735;28;20049;-65
2023/12/06 09:59:08;;;;;;;18.77;13.48;;;3.40;99.90;;;;;;5031036;28;20053;-65
2023/12/06 10:01:35;;;;;;;22.23;14.93;;;3.40;99.90;;;;;;5031137;28;20053;-65
2023/12/06 10:04:04;;;;;;;20.42;13.70;;;3.60;99.90;;;;;;5031578;28;20048;-65
2023/12/06 10:06:30;;;;;;;24.92;14.90;;;3.40;99.90;;;;;;5031180;28;20049;-65
2023/12/06 10:08:58;;;;;;;25.00;15.13;;;3.50;99.90;;;;;;5030709;28;20048;-65
2023/12/06 10:11:24;;;;;;;24.52;15.50;;;3.70;99.90;;;;;;5031123;28;20052;-65
2023/12/06 10:13:51;;;;;;;22.15;13.15;;;3.50;99.90;;;;;;5030295;28;20049;-65
2023/12/06 10:16:21;;;;;;;24.70;14.75;;;3.60;99.90;;;;;;5030925;28;20056;-66
2023/12/06 10:18:55;;;;;;;21.02;15.50;;;3.60;99.90;;;;;;5031331;28;20469;-65
2023/12/06 10:21:21;;;;;;;27.65;16.23;;;3.80;99.90;;;;;;5028634;28;20056;-66
2023/12/06 10:24:00;;;;;;;26.17;15.57;;;3.70;99.90;;;;;;5030815;28;20053;-65
2023/12/06 10:26:27;;;;;;;25.13;15.80;;;3.80;99.90;;;;;;5045809;28;20042;-64
2023/12/06 10:28:54;;;;;;;22.38;15.35;;;3.50;99.90;;;;;;5030420;28;20612;-65
2023/12/06 10:31:20;;;;;;;30.75;16.98;;;3.80;99.90;;;;;;5047650;28;20448;-66
2023/12/06 10:33:54;;;;;;;28.00;15.50;;;3.60;99.90;;;;;;5030748;28;20064;-65
2023/12/06 10:36:21;;;;;;;21.27;14.65;;;3.70;99.90;;;;;;5044927;28;20054;-66
2023/12/06 10:38:50;;;;;;;26.15;15.50;;;3.90;99.90;;;;;;5031102;28;20049;-65
2023/12/06 10:41:20;;;;;;;23.42;15.13;;;3.70;99.90;;;;;;5038708;28;20040;-64
2023/12/06 10:43:48;;;;;;;19.92;13.05;;;3.90;99.90;;;;;;5038982;28;20044;-64
2023/12/06 10:46:15;;;;;;;21.33;14.73;;;3.70;99.90;;;;;;5036899;28;20045;-64
2023/12/06 10:48:42;;;;;;;19.13;13.93;;;3.80;99.90;;;;;;5039711;28;20057;-64
2023/12/06 10:51:10;;;;;;;22.92;15.82;;;3.80;99.90;;;;;;5024550;28;20450;-65
2023/12/06 10:53:40;;;;;;;18.88;14.00;;;4.00;99.90;;;;;;5038828;28;20052;-65
2023/12/06 10:56:07;;;;;;;17.80;12.52;;;3.80;99.90;;;;;;5041135;28;20050;-64
2023/12/06 10:58:34;;;;;;;16.58;12.57;;;3.80;99.90;;;;;;5061639;28;20041;-64
2023/12/06 11:01:02;;;;;;;17.15;13.35;;;4.00;99.90;;;;;;5040329;28;20489;-64
2023/12/06 11:03:28;;;;;;;17.08;13.13;;;3.80;99.90;;;;;;5042973;28;20049;-64
2023/12/06 11:05:59;;;;;;;18.45;12.57;;;3.90;99.90;;;;;;5039131;28;20080;-65
2023/12/06 11:08:28;;;;;;;15.82;13.10;;;4.00;99.90;;;;;;5039499;28;20522;-64
2023/12/06 11:11:32;;;;;;;18.25;11.82;;;4.10;99.90;;;;;;5039406;28;20111;-65
2023/12/06 11:14:22;;;;;;;22.95;14.18;;;3.90;99.90;;;;;;5054717;28;20129;-65
2023/12/06 11:16:58;;;;;;;;;;;4.00;99.90;;;;;;5040750;28;20072;-65
2023/12/06 11:19:24;;;;;;;18.58;12.27;;;4.30;99.90;;;;;;5057073;28;19936;-65
2023/12/06 11:21:51;;;;;;;17.63;10.73;;;4.30;99.90;;;;;;5022162;28;20057;-66
2023/12/06 11:24:17;;;;;;;13.65;11.23;;;4.30;99.90;;;;;;5024815;28;20444;-65
2023/12/06 11:26:44;;;;;;;15.52;11.40;;;4.10;99.90;;;;;;5044372;28;20382;-67
2023/12/06 11:29:12;;;;;;;15.02;11.00;;;4.20;99.90;;;;;;5043093;28;20049;-65
2023/12/06 11:31:38;;;;;;;13.95;10.30;;;4.20;99.90;;;;;;5043962;28;20388;-65
2023/12/06 11:34:09;;;;;;;19.80;11.82;;;4.20;99.90;;;;;;5043406;28;20059;-66
2023/12/06 11:36:37;;;;;;;16.90;10.20;;;4.40;99.90;;;;;;5063037;28;20045;-65
2023/12/06 11:39:14;;;;;;;17.95;10.70;;;4.20;99.90;;;;;;5026493;28;20055;-66
2023/12/06 11:41:53;;;;;;;20.52;11.35;;;4.40;99.90;;;;;;5056784;28;20049;-66
2023/12/06 11:44:20;;;;;;;21.38;12.68;;;4.30;99.90;;;;;;5036723;28;20049;-65
2023/12/06 11:46:50;;;;;;;16.58;10.93;;;4.40;99.90;;;;;;5043410;28;20056;-65
2023/12/06 11:49:25;;;;;;;14.23;9.25;;;4.50;99.90;;;;;;5027335;28;20053;-66
2023/12/06 11:51:59;;;;;;;12.57;10.15;;;4.50;99.90;;;;;;5042266;28;20063;-66
2023/12/06 11:54:27;;;;;;;12.30;9.75;;;4.30;99.90;;;;;;5040134;28;20052;-65
2023/12/06 11:57:07;;;;;;;11.85;8.45;;;4.40;99.90;;;;;;5042294;28;20121;-66
2023/12/06 11:59:34;;;;;;;11.30;8.73;;;4.50;99.90;;;;;;5052700;28;20049;-65
2023/12/06 12:02:01;;;;;;;11.20;9.30;;;4.50;99.90;;;;;;5050479;28;20045;-64
2023/12/06 12:04:28;;;;;;;11.57;9.18;;;4.40;99.90;;;;;;5034218;28;20046;-65
2023/12/06 12:07:00;;;;;;;16.58;10.35;;;4.40;99.90;;;;;;5033447;28;20057;-66
2023/12/06 12:09:29;;;;;;;16.70;10.20;;;4.50;99.90;;;;;;5034169;28;20068;-65
2023/12/06 12:11:56;;;;;;;14.45;9.77;;;4.60;99.90;;;;;;5033752;28;20056;-67
2023/12/06 12:14:22;;;;;;;12.68;9.65;;;4.40;99.90;;;;;;5033671;28;20076;-65
2023/12/06 12:16:49;;;;;;;12.65;9.20;;;4.40;99.90;;;;;;5033661;28;20381;-65
2023/12/06 12:19:16;;;;;;;12.85;9.13;;;4.30;99.90;;;;;;5034019;28;20065;-66
2023/12/06 12:21:42;;;;;;;11.40;9.05;;;4.40;99.90;;;;;;5033384;28;20053;-65
2023/12/06 12:24:08;;;;;;;12.77;9.07;;;4.40;99.90;;;;;;5033254;28;20081;-65
2023/12/06 12:26:37;;;;;;;10.65;9.15;;;4.50;99.90;;;;;;5033156;28;20042;-66
2023/12/06 12:29:03;;;;;;;12.70;8.70;;;4.50;99.90;;;;;;5037367;28;20040;-65
2023/12/06 12:31:32;;;;;;;11.73;9.00;;;4.50;99.90;;;;;;5042581;28;20228;-65
2023/12/06 12:33:59;;;;;;;12.23;8.32;;;4.40;99.90;;;;;;5036441;28;20045;-65
2023/12/06 12:36:26;;;;;;;12.13;8.65;;;4.60;99.90;;;;;;5016512;28;20056;-65
2023/12/06 12:38:52;;;;;;;11.70;8.55;;;4.50;99.90;;;;;;5017329;28;20045;-65